sensor_id;sensor_type;location;lat;lon;timestamp;P1;durP1;ratioP1;P2;durP2;ratioP2
8213;SDS011;4148;47.974;7.824;2022-12-10T00:01:13;33.50;;;21.63;;
8213;SDS011;4148;47.974;7.824;2022-12-10T00:03:44;38.60;;;22.70;;
8213;SDS011;4148;47.974;7.824;2022-12-10T00:06:14;38.10;;;22.20;;
8213;SDS011;4148;47.974;7.824;2022-12-10T00:08:46;34.53;;;21.33;;
8213;SDS011;4148;47.974;7.824;2022-12-10T00:11:15;36.37;;;20.83;;
8213;SDS011;4148;47.974;7.824;2022-12-10T00:13:44;39.80;;;22.87;;
8213;SDS011;4148;47.974;7.824;2022-12-10T00:16:15;43.67;;;25.43;;
8213;SDS011;4148;47.974;7.824;2022-12-10T00:18:44;39.70;;;23.50;;
8213;SDS011;4148;47.974;7.824;2022-12-10T00:21:13;38.80;;;23.77;;
8213;SDS011;4148;47.974;7.824;2022-12-10T00:23:42;36.50;;;22.23;;
8213;SDS011;4148;47.974;7.824;2022-12-10T00:26:11;37.63;;;22.17;;
8213;SDS011;4148;47.974;7.824;2022-12-10T00:28:41;34.87;;;22.47;;
8213;SDS011;4148;47.974;7.824;2022-12-10T00:31:11;34.13;;;22.70;;
8213;SDS011;4148;47.974;7.824;2022-12-10T00:33:42;36.60;;;24.07;;
8213;SDS011;4148;47.974;7.824;2022-12-10T00:36:11;34.50;;;21.57;;
8213;SDS011;4148;47.974;7.824;2022-12-10T00:38:41;35.30;;;22.60;;
8213;SDS011;4148;47.974;7.824;2022-12-10T00:41:10;38.07;;;21.77;;
8213;SDS011;4148;47.974;7.824;2022-12-10T00:43:39;33.87;;;21.83;;
8213;SDS011;4148;47.974;7.824;2022-12-10T00:46:08;37.37;;;22.33;;
8213;SDS011;4148;47.974;7.824;2022-12-10T00:48:36;40.23;;;22.63;;
8213;SDS011;4148;47.974;7.824;2022-12-10T00:51:07;39.17;;;21.40;;
8213;SDS011;4148;47.974;7.824;2022-12-10T00:53:37;35.40;;;21.37;;
8213;SDS011;4148;47.974;7.824;2022-12-10T00:56:07;37.60;;;22.43;;
8213;SDS011;4148;47.974;7.824;2022-12-10T00:58:36;34.03;;;20.93;;
8213;SDS011;4148;47.974;7.824;2022-12-10T01:01:11;44.07;;;23.07;;
8213;SDS011;4148;47.974;7.824;2022-12-10T01:03:42;37.67;;;22.33;;
8213;SDS011;4148;47.974;7.824;2022-12-10T01:06:13;40.47;;;24.10;;
8213;SDS011;4148;47.974;7.824;2022-12-10T01:08:43;40.97;;;22.40;;
8213;SDS011;4148;47.974;7.824;2022-12-10T01:11:12;38.73;;;24.00;;
8213;SDS011;4148;47.974;7.824;2022-12-10T01:13:42;41.83;;;21.30;;
8213;SDS011;4148;47.974;7.824;2022-12-10T01:16:11;43.43;;;23.30;;
8213;SDS011;4148;47.974;7.824;2022-12-10T01:18:41;41.33;;;22.73;;
8213;SDS011;4148;47.974;7.824;2022-12-10T01:21:11;35.20;;;21.53;;
8213;SDS011;4148;47.974;7.824;2022-12-10T01:23:43;39.20;;;22.20;;
8213;SDS011;4148;47.974;7.824;2022-12-10T01:26:13;36.90;;;21.57;;
8213;SDS011;4148;47.974;7.824;2022-12-10T01:28:42;38.87;;;22.33;;
8213;SDS011;4148;47.974;7.824;2022-12-10T01:31:11;35.90;;;21.00;;
8213;SDS011;4148;47.974;7.824;2022-12-10T01:33:41;33.80;;;21.60;;
8213;SDS011;4148;47.974;7.824;2022-12-10T01:36:10;37.63;;;22.97;;
8213;SDS011;4148;47.974;7.824;2022-12-10T01:38:41;33.87;;;22.00;;
8213;SDS011;4148;47.974;7.824;2022-12-10T01:41:13;36.73;;;22.70;;
8213;SDS011;4148;47.974;7.824;2022-12-10T01:43:49;34.50;;;21.73;;
8213;SDS011;4148;47.974;7.824;2022-12-10T01:46:19;39.70;;;22.00;;
8213;SDS011;4148;47.974;7.824;2022-12-10T01:48:49;59.20;;;31.60;;
8213;SDS011;4148;47.974;7.824;2022-12-10T01:51:19;49.43;;;28.27;;
8213;SDS011;4148;47.974;7.824;2022-12-10T01:53:48;41.27;;;25.80;;
8213;SDS011;4148;47.974;7.824;2022-12-10T01:56:17;46.40;;;24.27;;
8213;SDS011;4148;47.974;7.824;2022-12-10T01:58:46;38.30;;;22.03;;
8213;SDS011;4148;47.974;7.824;2022-12-10T02:01:16;36.10;;;22.00;;
8213;SDS011;4148;47.974;7.824;2022-12-10T02:03:52;35.47;;;21.27;;
8213;SDS011;4148;47.974;7.824;2022-12-10T02:06:35;37.27;;;22.87;;
8213;SDS011;4148;47.974;7.824;2022-12-10T02:09:12;39.03;;;22.63;;
8213;SDS011;4148;47.974;7.824;2022-12-10T02:11:52;42.57;;;24.27;;
8213;SDS011;4148;47.974;7.824;2022-12-10T02:14:27;36.77;;;22.80;;
8213;SDS011;4148;47.974;7.824;2022-12-10T02:17:02;36.20;;;22.00;;
8213;SDS011;4148;47.974;7.824;2022-12-10T02:19:39;33.47;;;21.63;;
8213;SDS011;4148;47.974;7.824;2022-12-10T02:22:19;33.63;;;21.67;;
8213;SDS011;4148;47.974;7.824;2022-12-10T02:24:50;37.00;;;22.20;;
8213;SDS011;4148;47.974;7.824;2022-12-10T02:27:21;38.10;;;22.50;;
8213;SDS011;4148;47.974;7.824;2022-12-10T02:29:56;49.43;;;21.60;;
8213;SDS011;4148;47.974;7.824;2022-12-10T02:32:26;34.70;;;22.07;;
8213;SDS011;4148;47.974;7.824;2022-12-10T02:35:00;39.00;;;22.37;;
8213;SDS011;4148;47.974;7.824;2022-12-10T02:37:34;32.53;;;20.27;;
8213;SDS011;4148;47.974;7.824;2022-12-10T02:40:07;32.40;;;20.37;;
8213;SDS011;4148;47.974;7.824;2022-12-10T02:42:40;36.00;;;21.30;;
8213;SDS011;4148;47.974;7.824;2022-12-10T02:45:13;35.87;;;21.67;;
8213;SDS011;4148;47.974;7.824;2022-12-10T02:47:41;35.10;;;21.67;;
8213;SDS011;4148;47.974;7.824;2022-12-10T02:50:09;38.60;;;22.30;;
8213;SDS011;4148;47.974;7.824;2022-12-10T02:52:39;32.27;;;20.30;;
8213;SDS011;4148;47.974;7.824;2022-12-10T02:55:08;30.70;;;20.90;;
8213;SDS011;4148;47.974;7.824;2022-12-10T02:57:40;34.00;;;20.57;;
8213;SDS011;4148;47.974;7.824;2022-12-10T03:00:19;32.17;;;20.93;;
8213;SDS011;4148;47.974;7.824;2022-12-10T03:02:53;34.40;;;20.20;;
8213;SDS011;4148;47.974;7.824;2022-12-10T03:05:30;36.17;;;22.63;;
8213;SDS011;4148;47.974;7.824;2022-12-10T03:08:03;33.10;;;20.13;;
8213;SDS011;4148;47.974;7.824;2022-12-10T03:10:37;37.93;;;22.33;;
8213;SDS011;4148;47.974;7.824;2022-12-10T03:13:11;33.37;;;21.67;;
8213;SDS011;4148;47.974;7.824;2022-12-10T03:15:43;33.87;;;20.93;;
8213;SDS011;4148;47.974;7.824;2022-12-10T03:18:14;34.70;;;20.30;;
8213;SDS011;4148;47.974;7.824;2022-12-10T03:20:46;35.80;;;21.70;;
8213;SDS011;4148;47.974;7.824;2022-12-10T03:23:16;35.47;;;21.27;;
8213;SDS011;4148;47.974;7.824;2022-12-10T03:25:46;32.33;;;20.60;;
8213;SDS011;4148;47.974;7.824;2022-12-10T03:28:16;33.23;;;21.77;;
8213;SDS011;4148;47.974;7.824;2022-12-10T03:30:48;34.23;;;20.93;;
8213;SDS011;4148;47.974;7.824;2022-12-10T03:33:17;34.63;;;20.70;;
8213;SDS011;4148;47.974;7.824;2022-12-10T03:35:45;36.03;;;21.77;;
8213;SDS011;4148;47.974;7.824;2022-12-10T03:38:14;36.33;;;20.47;;
8213;SDS011;4148;47.974;7.824;2022-12-10T03:40:43;34.30;;;20.50;;
8213;SDS011;4148;47.974;7.824;2022-12-10T03:43:12;38.53;;;21.43;;
8213;SDS011;4148;47.974;7.824;2022-12-10T03:45:40;32.80;;;20.10;;
8213;SDS011;4148;47.974;7.824;2022-12-10T03:48:09;37.20;;;21.73;;
8213;SDS011;4148;47.974;7.824;2022-12-10T03:50:37;31.57;;;19.90;;
8213;SDS011;4148;47.974;7.824;2022-12-10T03:53:05;34.90;;;21.33;;
8213;SDS011;4148;47.974;7.824;2022-12-10T03:55:33;34.80;;;20.60;;
8213;SDS011;4148;47.974;7.824;2022-12-10T03:58:01;33.80;;;20.97;;
8213;SDS011;4148;47.974;7.824;2022-12-10T04:00:30;35.80;;;21.63;;
8213;SDS011;4148;47.974;7.824;2022-12-10T04:02:58;31.17;;;19.73;;
8213;SDS011;4148;47.974;7.824;2022-12-10T04:05:27;35.00;;;22.50;;
8213;SDS011;4148;47.974;7.824;2022-12-10T04:07:55;32.00;;;21.43;;
8213;SDS011;4148;47.974;7.824;2022-12-10T04:10:23;31.70;;;21.13;;
8213;SDS011;4148;47.974;7.824;2022-12-10T04:12:51;33.23;;;20.80;;
8213;SDS011;4148;47.974;7.824;2022-12-10T04:15:32;34.10;;;21.90;;
8213;SDS011;4148;47.974;7.824;2022-12-10T04:18:18;39.57;;;21.83;;
8213;SDS011;4148;47.974;7.824;2022-12-10T04:20:47;30.30;;;20.63;;
8213;SDS011;4148;47.974;7.824;2022-12-10T04:23:32;33.43;;;21.73;;
8213;SDS011;4148;47.974;7.824;2022-12-10T04:26:18;31.77;;;19.80;;
8213;SDS011;4148;47.974;7.824;2022-12-10T04:29:03;32.80;;;20.57;;
8213;SDS011;4148;47.974;7.824;2022-12-10T04:31:33;32.90;;;21.00;;
8213;SDS011;4148;47.974;7.824;2022-12-10T04:34:01;33.13;;;21.10;;
8213;SDS011;4148;47.974;7.824;2022-12-10T04:36:30;32.73;;;20.90;;
8213;SDS011;4148;47.974;7.824;2022-12-10T04:38:58;34.60;;;22.87;;
8213;SDS011;4148;47.974;7.824;2022-12-10T04:41:26;42.87;;;24.40;;
8213;SDS011;4148;47.974;7.824;2022-12-10T04:43:54;36.80;;;21.70;;
8213;SDS011;4148;47.974;7.824;2022-12-10T04:46:22;33.07;;;21.10;;
8213;SDS011;4148;47.974;7.824;2022-12-10T04:48:50;35.97;;;22.83;;
8213;SDS011;4148;47.974;7.824;2022-12-10T04:51:18;39.80;;;21.37;;
8213;SDS011;4148;47.974;7.824;2022-12-10T04:53:47;35.83;;;21.80;;
8213;SDS011;4148;47.974;7.824;2022-12-10T04:56:15;34.00;;;21.63;;
8213;SDS011;4148;47.974;7.824;2022-12-10T04:58:43;39.13;;;23.07;;
8213;SDS011;4148;47.974;7.824;2022-12-10T05:01:11;43.57;;;24.23;;
8213;SDS011;4148;47.974;7.824;2022-12-10T05:03:40;36.90;;;21.93;;
8213;SDS011;4148;47.974;7.824;2022-12-10T05:06:10;37.70;;;22.60;;
8213;SDS011;4148;47.974;7.824;2022-12-10T05:08:39;34.07;;;21.37;;
8213;SDS011;4148;47.974;7.824;2022-12-10T05:11:10;37.47;;;21.37;;
8213;SDS011;4148;47.974;7.824;2022-12-10T05:13:39;36.97;;;24.33;;
8213;SDS011;4148;47.974;7.824;2022-12-10T05:16:08;34.63;;;20.20;;
8213;SDS011;4148;47.974;7.824;2022-12-10T05:18:38;35.63;;;21.73;;
8213;SDS011;4148;47.974;7.824;2022-12-10T05:21:07;36.17;;;21.57;;
8213;SDS011;4148;47.974;7.824;2022-12-10T05:23:38;35.23;;;19.20;;
8213;SDS011;4148;47.974;7.824;2022-12-10T05:26:08;31.43;;;21.73;;
8213;SDS011;4148;47.974;7.824;2022-12-10T05:28:39;40.60;;;23.23;;
8213;SDS011;4148;47.974;7.824;2022-12-10T05:31:11;39.27;;;21.60;;
8213;SDS011;4148;47.974;7.824;2022-12-10T05:33:40;35.57;;;21.30;;
8213;SDS011;4148;47.974;7.824;2022-12-10T05:36:09;39.60;;;21.90;;
8213;SDS011;4148;47.974;7.824;2022-12-10T05:38:38;34.57;;;21.53;;
8213;SDS011;4148;47.974;7.824;2022-12-10T05:41:09;33.80;;;21.23;;
8213;SDS011;4148;47.974;7.824;2022-12-10T05:43:41;35.57;;;21.00;;
8213;SDS011;4148;47.974;7.824;2022-12-10T05:46:10;32.93;;;21.70;;
8213;SDS011;4148;47.974;7.824;2022-12-10T05:48:39;35.90;;;21.83;;
8213;SDS011;4148;47.974;7.824;2022-12-10T05:51:08;35.00;;;21.70;;
8213;SDS011;4148;47.974;7.824;2022-12-10T05:53:39;36.90;;;22.17;;
8213;SDS011;4148;47.974;7.824;2022-12-10T05:56:09;36.60;;;20.13;;
8213;SDS011;4148;47.974;7.824;2022-12-10T05:58:39;35.33;;;19.83;;
8213;SDS011;4148;47.974;7.824;2022-12-10T06:01:09;36.47;;;21.07;;
8213;SDS011;4148;47.974;7.824;2022-12-10T06:03:38;35.53;;;20.60;;
8213;SDS011;4148;47.974;7.824;2022-12-10T06:06:06;34.60;;;22.17;;
8213;SDS011;4148;47.974;7.824;2022-12-10T06:08:35;35.00;;;21.77;;
8213;SDS011;4148;47.974;7.824;2022-12-10T06:11:04;36.70;;;22.00;;
8213;SDS011;4148;47.974;7.824;2022-12-10T06:13:34;33.47;;;21.33;;
8213;SDS011;4148;47.974;7.824;2022-12-10T06:16:04;37.07;;;21.90;;
8213;SDS011;4148;47.974;7.824;2022-12-10T06:18:33;41.70;;;22.20;;
8213;SDS011;4148;47.974;7.824;2022-12-10T06:21:02;36.23;;;21.50;;
8213;SDS011;4148;47.974;7.824;2022-12-10T06:23:31;38.00;;;22.07;;
8213;SDS011;4148;47.974;7.824;2022-12-10T06:26:02;36.47;;;22.50;;
8213;SDS011;4148;47.974;7.824;2022-12-10T06:28:31;35.33;;;22.37;;
8213;SDS011;4148;47.974;7.824;2022-12-10T06:30:59;38.33;;;21.43;;
8213;SDS011;4148;47.974;7.824;2022-12-10T06:33:28;39.57;;;22.93;;
8213;SDS011;4148;47.974;7.824;2022-12-10T06:35:57;36.57;;;22.17;;
8213;SDS011;4148;47.974;7.824;2022-12-10T06:38:25;35.50;;;21.77;;
8213;SDS011;4148;47.974;7.824;2022-12-10T06:40:52;33.80;;;21.20;;
8213;SDS011;4148;47.974;7.824;2022-12-10T06:43:20;36.27;;;21.37;;
8213;SDS011;4148;47.974;7.824;2022-12-10T06:45:48;35.63;;;21.10;;
8213;SDS011;4148;47.974;7.824;2022-12-10T06:48:16;34.40;;;21.47;;
8213;SDS011;4148;47.974;7.824;2022-12-10T06:50:46;35.63;;;20.57;;
8213;SDS011;4148;47.974;7.824;2022-12-10T06:53:14;35.83;;;20.47;;
8213;SDS011;4148;47.974;7.824;2022-12-10T06:55:42;37.40;;;22.00;;
8213;SDS011;4148;47.974;7.824;2022-12-10T06:58:09;36.77;;;21.80;;
8213;SDS011;4148;47.974;7.824;2022-12-10T07:00:37;33.30;;;20.50;;
8213;SDS011;4148;47.974;7.824;2022-12-10T07:03:05;36.60;;;21.57;;
8213;SDS011;4148;47.974;7.824;2022-12-10T07:05:33;33.07;;;20.80;;
8213;SDS011;4148;47.974;7.824;2022-12-10T07:08:02;33.07;;;20.20;;
8213;SDS011;4148;47.974;7.824;2022-12-10T07:10:30;34.90;;;21.07;;
8213;SDS011;4148;47.974;7.824;2022-12-10T07:12:58;33.50;;;20.33;;
8213;SDS011;4148;47.974;7.824;2022-12-10T07:15:26;34.40;;;21.73;;
8213;SDS011;4148;47.974;7.824;2022-12-10T07:17:54;35.30;;;21.13;;
8213;SDS011;4148;47.974;7.824;2022-12-10T07:20:22;37.90;;;21.40;;
8213;SDS011;4148;47.974;7.824;2022-12-10T07:22:50;35.87;;;21.80;;
8213;SDS011;4148;47.974;7.824;2022-12-10T07:25:19;34.87;;;20.20;;
8213;SDS011;4148;47.974;7.824;2022-12-10T07:27:47;31.07;;;18.40;;
8213;SDS011;4148;47.974;7.824;2022-12-10T07:30:19;33.37;;;18.87;;
8213;SDS011;4148;47.974;7.824;2022-12-10T07:32:47;32.00;;;18.83;;
8213;SDS011;4148;47.974;7.824;2022-12-10T07:35:15;28.33;;;17.20;;
8213;SDS011;4148;47.974;7.824;2022-12-10T07:37:43;30.53;;;18.20;;
8213;SDS011;4148;47.974;7.824;2022-12-10T07:40:11;27.67;;;17.40;;
8213;SDS011;4148;47.974;7.824;2022-12-10T07:42:40;27.87;;;16.53;;
8213;SDS011;4148;47.974;7.824;2022-12-10T07:45:08;26.37;;;16.80;;
8213;SDS011;4148;47.974;7.824;2022-12-10T07:47:37;29.23;;;17.00;;
8213;SDS011;4148;47.974;7.824;2022-12-10T07:50:06;27.10;;;16.13;;
8213;SDS011;4148;47.974;7.824;2022-12-10T07:52:36;25.70;;;16.40;;
8213;SDS011;4148;47.974;7.824;2022-12-10T07:55:04;25.03;;;15.60;;
8213;SDS011;4148;47.974;7.824;2022-12-10T07:57:32;25.00;;;16.33;;
8213;SDS011;4148;47.974;7.824;2022-12-10T08:00:02;25.37;;;15.27;;
8213;SDS011;4148;47.974;7.824;2022-12-10T08:02:31;29.50;;;16.47;;
8213;SDS011;4148;47.974;7.824;2022-12-10T08:04:59;27.07;;;16.67;;
8213;SDS011;4148;47.974;7.824;2022-12-10T08:07:27;27.73;;;16.80;;
8213;SDS011;4148;47.974;7.824;2022-12-10T08:09:55;31.37;;;17.30;;
8213;SDS011;4148;47.974;7.824;2022-12-10T08:12:23;28.20;;;17.00;;
8213;SDS011;4148;47.974;7.824;2022-12-10T08:14:51;25.03;;;15.37;;
8213;SDS011;4148;47.974;7.824;2022-12-10T08:17:20;31.90;;;16.70;;
8213;SDS011;4148;47.974;7.824;2022-12-10T08:19:48;35.40;;;19.30;;
8213;SDS011;4148;47.974;7.824;2022-12-10T08:22:16;38.10;;;19.23;;
8213;SDS011;4148;47.974;7.824;2022-12-10T08:24:44;38.80;;;19.17;;
8213;SDS011;4148;47.974;7.824;2022-12-10T08:27:12;33.00;;;19.57;;
8213;SDS011;4148;47.974;7.824;2022-12-10T08:29:40;30.93;;;18.13;;
8213;SDS011;4148;47.974;7.824;2022-12-10T08:32:08;31.50;;;18.20;;
8213;SDS011;4148;47.974;7.824;2022-12-10T08:34:37;33.60;;;20.33;;
8213;SDS011;4148;47.974;7.824;2022-12-10T08:37:05;43.57;;;23.00;;
8213;SDS011;4148;47.974;7.824;2022-12-10T08:39:37;51.30;;;24.90;;
8213;SDS011;4148;47.974;7.824;2022-12-10T08:42:06;51.23;;;24.33;;
8213;SDS011;4148;47.974;7.824;2022-12-10T08:44:34;52.43;;;23.20;;
8213;SDS011;4148;47.974;7.824;2022-12-10T08:47:02;48.07;;;22.13;;
8213;SDS011;4148;47.974;7.824;2022-12-10T08:49:30;37.63;;;20.33;;
8213;SDS011;4148;47.974;7.824;2022-12-10T08:51:59;42.30;;;20.97;;
8213;SDS011;4148;47.974;7.824;2022-12-10T08:54:27;39.27;;;20.13;;
8213;SDS011;4148;47.974;7.824;2022-12-10T08:56:55;36.77;;;20.67;;
8213;SDS011;4148;47.974;7.824;2022-12-10T08:59:22;36.80;;;21.53;;
8213;SDS011;4148;47.974;7.824;2022-12-10T09:01:50;42.93;;;21.90;;
8213;SDS011;4148;47.974;7.824;2022-12-10T09:04:22;40.30;;;20.23;;
8213;SDS011;4148;47.974;7.824;2022-12-10T09:06:49;41.33;;;20.63;;
8213;SDS011;4148;47.974;7.824;2022-12-10T09:09:20;37.30;;;21.60;;
8213;SDS011;4148;47.974;7.824;2022-12-10T09:11:47;40.80;;;21.60;;
8213;SDS011;4148;47.974;7.824;2022-12-10T09:14:15;38.20;;;21.83;;
8213;SDS011;4148;47.974;7.824;2022-12-10T09:16:43;35.20;;;20.33;;
8213;SDS011;4148;47.974;7.824;2022-12-10T09:19:11;39.63;;;22.23;;
8213;SDS011;4148;47.974;7.824;2022-12-10T09:21:45;40.77;;;21.10;;
8213;SDS011;4148;47.974;7.824;2022-12-10T09:24:14;35.90;;;19.43;;
8213;SDS011;4148;47.974;7.824;2022-12-10T09:26:43;37.30;;;19.17;;
8213;SDS011;4148;47.974;7.824;2022-12-10T09:29:11;40.23;;;20.77;;
8213;SDS011;4148;47.974;7.824;2022-12-10T09:31:39;41.70;;;21.70;;
8213;SDS011;4148;47.974;7.824;2022-12-10T09:34:07;41.37;;;21.60;;
8213;SDS011;4148;47.974;7.824;2022-12-10T09:36:35;48.10;;;23.90;;
8213;SDS011;4148;47.974;7.824;2022-12-10T09:39:03;43.37;;;23.80;;
8213;SDS011;4148;47.974;7.824;2022-12-10T09:41:46;53.90;;;23.20;;
8213;SDS011;4148;47.974;7.824;2022-12-10T09:44:29;50.13;;;24.80;;
8213;SDS011;4148;47.974;7.824;2022-12-10T09:47:08;43.30;;;21.60;;
8213;SDS011;4148;47.974;7.824;2022-12-10T09:49:40;47.43;;;24.27;;
8213;SDS011;4148;47.974;7.824;2022-12-10T09:52:21;43.00;;;23.17;;
8213;SDS011;4148;47.974;7.824;2022-12-10T09:54:52;49.70;;;23.70;;
8213;SDS011;4148;47.974;7.824;2022-12-10T09:57:25;52.63;;;25.27;;
8213;SDS011;4148;47.974;7.824;2022-12-10T09:59:56;52.80;;;24.63;;
8213;SDS011;4148;47.974;7.824;2022-12-10T10:02:28;51.83;;;23.90;;
8213;SDS011;4148;47.974;7.824;2022-12-10T10:05:00;50.60;;;24.63;;
8213;SDS011;4148;47.974;7.824;2022-12-10T10:07:35;47.57;;;22.70;;
8213;SDS011;4148;47.974;7.824;2022-12-10T10:10:20;48.53;;;23.17;;
8213;SDS011;4148;47.974;7.824;2022-12-10T10:12:53;61.83;;;24.73;;
8213;SDS011;4148;47.974;7.824;2022-12-10T10:15:24;56.57;;;24.67;;
8213;SDS011;4148;47.974;7.824;2022-12-10T10:17:56;54.00;;;23.87;;
8213;SDS011;4148;47.974;7.824;2022-12-10T10:20:28;51.27;;;24.77;;
8213;SDS011;4148;47.974;7.824;2022-12-10T10:22:57;57.20;;;26.83;;
8213;SDS011;4148;47.974;7.824;2022-12-10T10:25:27;51.57;;;25.37;;
8213;SDS011;4148;47.974;7.824;2022-12-10T10:27:57;47.80;;;24.57;;
8213;SDS011;4148;47.974;7.824;2022-12-10T10:30:25;51.97;;;25.90;;
8213;SDS011;4148;47.974;7.824;2022-12-10T10:32:54;54.00;;;26.53;;
8213;SDS011;4148;47.974;7.824;2022-12-10T10:35:25;49.57;;;25.90;;
8213;SDS011;4148;47.974;7.824;2022-12-10T10:37:59;49.33;;;25.33;;
8213;SDS011;4148;47.974;7.824;2022-12-10T10:40:29;55.83;;;25.77;;
8213;SDS011;4148;47.974;7.824;2022-12-10T10:43:01;48.57;;;25.30;;
8213;SDS011;4148;47.974;7.824;2022-12-10T10:45:33;50.07;;;24.90;;
8213;SDS011;4148;47.974;7.824;2022-12-10T10:48:08;51.67;;;23.87;;
8213;SDS011;4148;47.974;7.824;2022-12-10T10:50:39;46.67;;;23.67;;
8213;SDS011;4148;47.974;7.824;2022-12-10T10:53:28;49.17;;;23.87;;
8213;SDS011;4148;47.974;7.824;2022-12-10T10:56:05;47.70;;;24.93;;
8213;SDS011;4148;47.974;7.824;2022-12-10T10:58:36;45.43;;;24.03;;
8213;SDS011;4148;47.974;7.824;2022-12-10T11:01:15;48.80;;;24.80;;
8213;SDS011;4148;47.974;7.824;2022-12-10T11:03:45;45.80;;;24.70;;
8213;SDS011;4148;47.974;7.824;2022-12-10T11:06:15;40.43;;;22.37;;
8213;SDS011;4148;47.974;7.824;2022-12-10T11:08:44;46.93;;;23.90;;
8213;SDS011;4148;47.974;7.824;2022-12-10T11:11:16;47.13;;;24.10;;
8213;SDS011;4148;47.974;7.824;2022-12-10T11:13:48;43.40;;;22.33;;
8213;SDS011;4148;47.974;7.824;2022-12-10T11:16:17;46.33;;;23.27;;
8213;SDS011;4148;47.974;7.824;2022-12-10T11:18:52;41.60;;;22.17;;
8213;SDS011;4148;47.974;7.824;2022-12-10T11:21:22;44.07;;;21.63;;
8213;SDS011;4148;47.974;7.824;2022-12-10T11:23:51;46.57;;;23.67;;
8213;SDS011;4148;47.974;7.824;2022-12-10T11:26:30;49.90;;;24.83;;
8213;SDS011;4148;47.974;7.824;2022-12-10T11:29:14;44.43;;;23.33;;
8213;SDS011;4148;47.974;7.824;2022-12-10T11:31:56;47.10;;;22.37;;
8213;SDS011;4148;47.974;7.824;2022-12-10T11:34:43;40.30;;;21.13;;
8213;SDS011;4148;47.974;7.824;2022-12-10T11:37:21;43.23;;;21.43;;
8213;SDS011;4148;47.974;7.824;2022-12-10T11:40:13;48.83;;;23.07;;
8213;SDS011;4148;47.974;7.824;2022-12-10T11:42:52;44.33;;;22.77;;
8213;SDS011;4148;47.974;7.824;2022-12-10T11:45:32;43.77;;;22.27;;
8213;SDS011;4148;47.974;7.824;2022-12-10T11:48:14;41.50;;;21.67;;
8213;SDS011;4148;47.974;7.824;2022-12-10T11:50:48;41.63;;;20.20;;
8213;SDS011;4148;47.974;7.824;2022-12-10T11:53:25;44.90;;;21.67;;
8213;SDS011;4148;47.974;7.824;2022-12-10T11:56:20;44.37;;;21.10;;
8213;SDS011;4148;47.974;7.824;2022-12-10T11:58:55;40.83;;;20.27;;
8213;SDS011;4148;47.974;7.824;2022-12-10T12:01:35;43.70;;;19.73;;
8213;SDS011;4148;47.974;7.824;2022-12-10T12:07:14;43.93;;;22.37;;
8213;SDS011;4148;47.974;7.824;2022-12-10T12:09:57;45.03;;;21.53;;
8213;SDS011;4148;47.974;7.824;2022-12-10T12:12:47;45.80;;;22.67;;
8213;SDS011;4148;47.974;7.824;2022-12-10T12:15:25;45.67;;;22.00;;
8213;SDS011;4148;47.974;7.824;2022-12-10T12:17:59;48.03;;;23.40;;
8213;SDS011;4148;47.974;7.824;2022-12-10T12:20:37;48.23;;;22.67;;
8213;SDS011;4148;47.974;7.824;2022-12-10T12:23:11;42.67;;;21.30;;
8213;SDS011;4148;47.974;7.824;2022-12-10T12:25:44;48.37;;;22.53;;
8213;SDS011;4148;47.974;7.824;2022-12-10T12:28:16;46.63;;;22.63;;
8213;SDS011;4148;47.974;7.824;2022-12-10T12:30:51;41.67;;;21.23;;
8213;SDS011;4148;47.974;7.824;2022-12-10T12:33:28;48.53;;;22.80;;
8213;SDS011;4148;47.974;7.824;2022-12-10T12:36:02;46.20;;;21.67;;
8213;SDS011;4148;47.974;7.824;2022-12-10T12:38:36;41.67;;;21.47;;
8213;SDS011;4148;47.974;7.824;2022-12-10T12:41:10;46.27;;;21.50;;
8213;SDS011;4148;47.974;7.824;2022-12-10T12:43:44;44.40;;;23.57;;
8213;SDS011;4148;47.974;7.824;2022-12-10T12:46:18;39.80;;;19.97;;
8213;SDS011;4148;47.974;7.824;2022-12-10T12:48:53;42.10;;;20.53;;
8213;SDS011;4148;47.974;7.824;2022-12-10T12:51:24;45.97;;;22.70;;
8213;SDS011;4148;47.974;7.824;2022-12-10T12:53:57;43.03;;;22.23;;
8213;SDS011;4148;47.974;7.824;2022-12-10T12:56:27;47.73;;;22.90;;
8213;SDS011;4148;47.974;7.824;2022-12-10T12:59:09;44.33;;;21.93;;
8213;SDS011;4148;47.974;7.824;2022-12-10T13:01:47;43.00;;;21.07;;
8213;SDS011;4148;47.974;7.824;2022-12-10T13:04:20;38.83;;;21.20;;
8213;SDS011;4148;47.974;7.824;2022-12-10T13:09:52;44.07;;;22.93;;
8213;SDS011;4148;47.974;7.824;2022-12-10T13:12:45;46.60;;;23.87;;
8213;SDS011;4148;47.974;7.824;2022-12-10T13:15:17;43.73;;;21.90;;
8213;SDS011;4148;47.974;7.824;2022-12-10T13:18:00;69.40;;;26.60;;
8213;SDS011;4148;47.974;7.824;2022-12-10T13:20:33;44.43;;;23.80;;
8213;SDS011;4148;47.974;7.824;2022-12-10T13:23:03;43.57;;;24.07;;
8213;SDS011;4148;47.974;7.824;2022-12-10T13:25:55;53.30;;;24.53;;
8213;SDS011;4148;47.974;7.824;2022-12-10T13:28:30;40.07;;;22.10;;
8213;SDS011;4148;47.974;7.824;2022-12-10T13:31:12;40.37;;;21.20;;
8213;SDS011;4148;47.974;7.824;2022-12-10T13:33:50;42.20;;;22.80;;
8213;SDS011;4148;47.974;7.824;2022-12-10T13:36:35;40.03;;;22.40;;
8213;SDS011;4148;47.974;7.824;2022-12-10T13:39:31;44.03;;;22.33;;
8213;SDS011;4148;47.974;7.824;2022-12-10T13:42:22;39.80;;;23.13;;
8213;SDS011;4148;47.974;7.824;2022-12-10T13:45:25;43.50;;;22.83;;
8213;SDS011;4148;47.974;7.824;2022-12-10T13:51:06;41.20;;;21.97;;
8213;SDS011;4148;47.974;7.824;2022-12-10T13:53:55;39.90;;;21.43;;
8213;SDS011;4148;47.974;7.824;2022-12-10T13:56:41;39.20;;;20.57;;
8213;SDS011;4148;47.974;7.824;2022-12-10T13:59:23;42.33;;;22.30;;
8213;SDS011;4148;47.974;7.824;2022-12-10T14:02:00;38.00;;;19.93;;
8213;SDS011;4148;47.974;7.824;2022-12-10T14:04:50;42.23;;;22.00;;
8213;SDS011;4148;47.974;7.824;2022-12-10T14:07:32;41.13;;;22.30;;
8213;SDS011;4148;47.974;7.824;2022-12-10T14:10:02;43.97;;;22.83;;
8213;SDS011;4148;47.974;7.824;2022-12-10T14:12:38;38.73;;;20.40;;
8213;SDS011;4148;47.974;7.824;2022-12-10T14:15:08;39.50;;;20.97;;
8213;SDS011;4148;47.974;7.824;2022-12-10T14:17:43;43.37;;;21.97;;
8213;SDS011;4148;47.974;7.824;2022-12-10T14:20:13;41.43;;;21.70;;
8213;SDS011;4148;47.974;7.824;2022-12-10T14:22:44;41.63;;;22.37;;
8213;SDS011;4148;47.974;7.824;2022-12-10T14:25:16;42.13;;;21.83;;
8213;SDS011;4148;47.974;7.824;2022-12-10T14:27:46;38.60;;;22.50;;
8213;SDS011;4148;47.974;7.824;2022-12-10T14:30:16;45.50;;;22.97;;
8213;SDS011;4148;47.974;7.824;2022-12-10T14:32:46;37.13;;;20.37;;
8213;SDS011;4148;47.974;7.824;2022-12-10T14:35:17;37.33;;;20.00;;
8213;SDS011;4148;47.974;7.824;2022-12-10T14:37:51;37.50;;;21.87;;
8213;SDS011;4148;47.974;7.824;2022-12-10T14:40:24;42.73;;;22.20;;
8213;SDS011;4148;47.974;7.824;2022-12-10T14:42:55;37.03;;;21.23;;
8213;SDS011;4148;47.974;7.824;2022-12-10T14:45:30;41.70;;;21.50;;
8213;SDS011;4148;47.974;7.824;2022-12-10T14:48:05;44.87;;;23.43;;
8213;SDS011;4148;47.974;7.824;2022-12-10T14:50:35;58.30;;;29.80;;
8213;SDS011;4148;47.974;7.824;2022-12-10T14:53:08;47.07;;;25.70;;
8213;SDS011;4148;47.974;7.824;2022-12-10T14:55:42;43.20;;;23.43;;
8213;SDS011;4148;47.974;7.824;2022-12-10T14:58:14;56.53;;;30.90;;
8213;SDS011;4148;47.974;7.824;2022-12-10T15:01:09;51.73;;;28.53;;
8213;SDS011;4148;47.974;7.824;2022-12-10T15:03:43;45.07;;;23.10;;
8213;SDS011;4148;47.974;7.824;2022-12-10T15:06:15;42.10;;;24.50;;
8213;SDS011;4148;47.974;7.824;2022-12-10T15:08:46;62.90;;;36.20;;
8213;SDS011;4148;47.974;7.824;2022-12-10T15:11:17;54.13;;;30.70;;
8213;SDS011;4148;47.974;7.824;2022-12-10T15:13:47;47.03;;;27.17;;
8213;SDS011;4148;47.974;7.824;2022-12-10T15:16:17;42.90;;;23.57;;
8213;SDS011;4148;47.974;7.824;2022-12-10T15:18:47;42.77;;;23.00;;
8213;SDS011;4148;47.974;7.824;2022-12-10T15:21:15;36.43;;;21.80;;
8213;SDS011;4148;47.974;7.824;2022-12-10T15:23:47;41.60;;;22.97;;
8213;SDS011;4148;47.974;7.824;2022-12-10T15:26:19;37.13;;;21.37;;